sensor_id;sensor_type;location;lat;lon;timestamp;P1;durP1;ratioP1;P2;durP2;ratioP2
75191;SDS011;63771;52.580;9.734;2023-11-22T00:00:57;4.10;;;3.80;;
75191;SDS011;63771;52.580;9.734;2023-11-22T00:03:23;3.63;;;3.33;;
75191;SDS011;63771;52.580;9.734;2023-11-22T00:05:49;4.18;;;3.65;;
75191;SDS011;63771;52.580;9.734;2023-11-22T00:08:15;3.40;;;2.85;;
75191;SDS011;63771;52.580;9.734;2023-11-22T00:10:40;4.27;;;2.80;;
75191;SDS011;63771;52.580;9.734;2023-11-22T00:13:05;3.93;;;3.37;;
75191;SDS011;63771;52.580;9.734;2023-11-22T00:15:30;4.67;;;3.17;;
75191;SDS011;63771;52.580;9.734;2023-11-22T00:17:56;3.73;;;3.20;;
75191;SDS011;63771;52.580;9.734;2023-11-22T00:20:22;3.53;;;2.95;;
75191;SDS011;63771;52.580;9.734;2023-11-22T00:22:48;4.07;;;3.42;;
75191;SDS011;63771;52.580;9.734;2023-11-22T00:25:13;3.50;;;3.20;;
75191;SDS011;63771;52.580;9.734;2023-11-22T00:27:39;3.80;;;3.35;;
75191;SDS011;63771;52.580;9.734;2023-11-22T00:30:04;8.13;;;3.17;;
75191;SDS011;63771;52.580;9.734;2023-11-22T00:32:30;4.88;;;3.60;;
75191;SDS011;63771;52.580;9.734;2023-11-22T00:34:55;4.05;;;3.45;;
75191;SDS011;63771;52.580;9.734;2023-11-22T00:37:21;3.23;;;2.93;;
75191;SDS011;63771;52.580;9.734;2023-11-22T00:39:46;4.57;;;3.15;;
75191;SDS011;63771;52.580;9.734;2023-11-22T00:42:12;3.45;;;3.08;;
75191;SDS011;63771;52.580;9.734;2023-11-22T00:44:37;3.37;;;3.03;;
75191;SDS011;63771;52.580;9.734;2023-11-22T00:47:02;4.27;;;3.20;;
75191;SDS011;63771;52.580;9.734;2023-11-22T00:49:28;3.22;;;2.92;;
75191;SDS011;63771;52.580;9.734;2023-11-22T00:51:53;3.53;;;3.23;;
75191;SDS011;63771;52.580;9.734;2023-11-22T00:54:19;3.70;;;2.63;;
75191;SDS011;63771;52.580;9.734;2023-11-22T00:59:13;2.87;;;2.67;;
75191;SDS011;63771;52.580;9.734;2023-11-22T01:01:41;3.40;;;3.00;;
75191;SDS011;63771;52.580;9.734;2023-11-22T01:04:07;3.40;;;2.60;;
75191;SDS011;63771;52.580;9.734;2023-11-22T01:06:33;3.88;;;3.53;;
75191;SDS011;63771;52.580;9.734;2023-11-22T01:08:58;3.30;;;3.00;;
75191;SDS011;63771;52.580;9.734;2023-11-22T01:11:24;3.03;;;2.50;;
75191;SDS011;63771;52.580;9.734;2023-11-22T01:13:49;3.53;;;3.23;;
75191;SDS011;63771;52.580;9.734;2023-11-22T01:16:15;3.33;;;3.13;;
75191;SDS011;63771;52.580;9.734;2023-11-22T01:18:41;3.50;;;2.58;;
75191;SDS011;63771;52.580;9.734;2023-11-22T01:21:06;3.92;;;3.63;;
75191;SDS011;63771;52.580;9.734;2023-11-22T01:23:31;5.60;;;2.93;;
75191;SDS011;63771;52.580;9.734;2023-11-22T01:25:57;4.35;;;3.70;;
75191;SDS011;63771;52.580;9.734;2023-11-22T01:28:23;5.35;;;3.72;;
75191;SDS011;63771;52.580;9.734;2023-11-22T01:30:49;6.75;;;3.20;;
75191;SDS011;63771;52.580;9.734;2023-11-22T01:33:14;3.67;;;2.97;;
75191;SDS011;63771;52.580;9.734;2023-11-22T01:35:40;3.60;;;3.30;;
75191;SDS011;63771;52.580;9.734;2023-11-22T01:38:05;4.18;;;3.88;;
75191;SDS011;63771;52.580;9.734;2023-11-22T01:40:31;4.22;;;3.83;;
75191;SDS011;63771;52.580;9.734;2023-11-22T01:42:57;3.78;;;3.22;;
75191;SDS011;63771;52.580;9.734;2023-11-22T01:45:23;3.55;;;3.30;;
75191;SDS011;63771;52.580;9.734;2023-11-22T01:47:48;3.17;;;2.97;;
75191;SDS011;63771;52.580;9.734;2023-11-22T01:50:14;2.83;;;2.35;;
75191;SDS011;63771;52.580;9.734;2023-11-22T01:52:39;3.33;;;2.80;;
75191;SDS011;63771;52.580;9.734;2023-11-22T01:55:06;3.60;;;3.03;;
75191;SDS011;63771;52.580;9.734;2023-11-22T01:57:33;3.50;;;3.20;;
75191;SDS011;63771;52.580;9.734;2023-11-22T02:00:00;3.58;;;3.03;;
75191;SDS011;63771;52.580;9.734;2023-11-22T02:02:32;2.53;;;2.38;;
75191;SDS011;63771;52.580;9.734;2023-11-22T02:04:59;2.78;;;2.58;;
75191;SDS011;63771;52.580;9.734;2023-11-22T02:07:29;5.10;;;3.30;;
75191;SDS011;63771;52.580;9.734;2023-11-22T02:09:56;3.60;;;3.33;;
75191;SDS011;63771;52.580;9.734;2023-11-22T02:12:22;5.47;;;3.65;;
75191;SDS011;63771;52.580;9.734;2023-11-22T02:14:48;4.60;;;4.22;;
75191;SDS011;63771;52.580;9.734;2023-11-22T02:17:14;3.38;;;3.17;;
75191;SDS011;63771;52.580;9.734;2023-11-22T02:19:41;4.35;;;3.95;;
75191;SDS011;63771;52.580;9.734;2023-11-22T02:22:07;3.28;;;2.97;;
75191;SDS011;63771;52.580;9.734;2023-11-22T02:24:33;3.50;;;3.30;;
75191;SDS011;63771;52.580;9.734;2023-11-22T02:26:59;4.95;;;3.47;;
75191;SDS011;63771;52.580;9.734;2023-11-22T02:29:25;4.32;;;3.70;;
75191;SDS011;63771;52.580;9.734;2023-11-22T02:31:50;4.83;;;2.90;;
75191;SDS011;63771;52.580;9.734;2023-11-22T02:34:15;4.07;;;3.47;;
75191;SDS011;63771;52.580;9.734;2023-11-22T02:36:44;3.50;;;3.13;;
75191;SDS011;63771;52.580;9.734;2023-11-22T02:39:09;5.80;;;3.30;;
75191;SDS011;63771;52.580;9.734;2023-11-22T02:41:34;6.60;;;3.47;;
75191;SDS011;63771;52.580;9.734;2023-11-22T02:44:00;3.50;;;2.90;;
75191;SDS011;63771;52.580;9.734;2023-11-22T02:46:26;2.95;;;2.72;;
75191;SDS011;63771;52.580;9.734;2023-11-22T02:48:51;3.17;;;2.97;;
75191;SDS011;63771;52.580;9.734;2023-11-22T02:51:19;3.85;;;3.55;;
75191;SDS011;63771;52.580;9.734;2023-11-22T02:53:44;3.20;;;2.90;;
75191;SDS011;63771;52.580;9.734;2023-11-22T02:56:11;4.03;;;3.72;;
75191;SDS011;63771;52.580;9.734;2023-11-22T02:58:36;3.58;;;3.28;;
75191;SDS011;63771;52.580;9.734;2023-11-22T03:01:02;4.33;;;4.03;;
75191;SDS011;63771;52.580;9.734;2023-11-22T03:03:27;4.07;;;3.67;;
75191;SDS011;63771;52.580;9.734;2023-11-22T03:05:53;4.47;;;3.53;;
75191;SDS011;63771;52.580;9.734;2023-11-22T03:08:19;4.00;;;3.65;;
75191;SDS011;63771;52.580;9.734;2023-11-22T03:10:45;3.60;;;3.25;;
75191;SDS011;63771;52.580;9.734;2023-11-22T03:13:11;5.15;;;4.85;;
75191;SDS011;63771;52.580;9.734;2023-11-22T03:15:36;4.55;;;4.07;;
75191;SDS011;63771;52.580;9.734;2023-11-22T03:18:02;3.72;;;3.40;;
75191;SDS011;63771;52.580;9.734;2023-11-22T03:20:29;3.78;;;3.20;;
75191;SDS011;63771;52.580;9.734;2023-11-22T03:22:56;3.47;;;2.67;;
75191;SDS011;63771;52.580;9.734;2023-11-22T03:25:21;4.10;;;3.70;;
75191;SDS011;63771;52.580;9.734;2023-11-22T03:27:46;4.85;;;3.80;;
75191;SDS011;63771;52.580;9.734;2023-11-22T03:30:12;4.10;;;3.40;;
75191;SDS011;63771;52.580;9.734;2023-11-22T03:32:38;3.53;;;3.22;;
75191;SDS011;63771;52.580;9.734;2023-11-22T03:35:05;3.45;;;3.17;;
75191;SDS011;63771;52.580;9.734;2023-11-22T03:37:34;3.40;;;3.10;;
75191;SDS011;63771;52.580;9.734;2023-11-22T03:39:59;3.10;;;2.67;;
75191;SDS011;63771;52.580;9.734;2023-11-22T03:42:25;3.03;;;2.42;;
75191;SDS011;63771;52.580;9.734;2023-11-22T03:44:51;4.32;;;3.47;;
75191;SDS011;63771;52.580;9.734;2023-11-22T03:47:17;3.70;;;3.00;;
75191;SDS011;63771;52.580;9.734;2023-11-22T03:49:42;3.80;;;3.00;;
75191;SDS011;63771;52.580;9.734;2023-11-22T03:52:08;3.63;;;3.33;;
75191;SDS011;63771;52.580;9.734;2023-11-22T03:54:35;2.88;;;2.55;;
75191;SDS011;63771;52.580;9.734;2023-11-22T03:57:01;3.13;;;2.90;;
75191;SDS011;63771;52.580;9.734;2023-11-22T03:59:27;3.72;;;2.58;;
75191;SDS011;63771;52.580;9.734;2023-11-22T04:01:52;3.47;;;2.83;;
75191;SDS011;63771;52.580;9.734;2023-11-22T04:04:18;5.07;;;2.83;;
75191;SDS011;63771;52.580;9.734;2023-11-22T04:06:44;4.63;;;3.60;;
75191;SDS011;63771;52.580;9.734;2023-11-22T04:09:09;5.07;;;3.80;;
75191;SDS011;63771;52.580;9.734;2023-11-22T04:11:37;2.97;;;2.78;;
75191;SDS011;63771;52.580;9.734;2023-11-22T04:14:02;3.20;;;2.90;;
75191;SDS011;63771;52.580;9.734;2023-11-22T04:16:28;2.60;;;2.40;;
75191;SDS011;63771;52.580;9.734;2023-11-22T04:18:53;3.67;;;3.37;;
75191;SDS011;63771;52.580;9.734;2023-11-22T04:21:18;3.57;;;3.37;;
75191;SDS011;63771;52.580;9.734;2023-11-22T04:23:44;2.92;;;2.55;;
75191;SDS011;63771;52.580;9.734;2023-11-22T04:26:09;2.95;;;2.75;;
75191;SDS011;63771;52.580;9.734;2023-11-22T04:28:35;3.03;;;2.83;;
75191;SDS011;63771;52.580;9.734;2023-11-22T04:31:01;3.55;;;3.25;;
75191;SDS011;63771;52.580;9.734;2023-11-22T04:33:26;4.53;;;2.67;;
75191;SDS011;63771;52.580;9.734;2023-11-22T04:35:54;3.65;;;2.67;;
75191;SDS011;63771;52.580;9.734;2023-11-22T04:38:19;2.47;;;2.28;;
75191;SDS011;63771;52.580;9.734;2023-11-22T04:40:45;4.50;;;3.27;;
75191;SDS011;63771;52.580;9.734;2023-11-22T04:43:10;3.28;;;3.00;;
75191;SDS011;63771;52.580;9.734;2023-11-22T04:45:36;2.80;;;2.60;;
75191;SDS011;63771;52.580;9.734;2023-11-22T04:48:01;2.70;;;2.50;;
75191;SDS011;63771;52.580;9.734;2023-11-22T04:50:27;4.18;;;3.88;;
75191;SDS011;63771;52.580;9.734;2023-11-22T04:52:52;2.33;;;2.23;;
75191;SDS011;63771;52.580;9.734;2023-11-22T04:55:17;2.35;;;2.20;;
75191;SDS011;63771;52.580;9.734;2023-11-22T04:57:44;2.45;;;2.25;;
75191;SDS011;63771;52.580;9.734;2023-11-22T05:00:10;3.03;;;2.83;;
75191;SDS011;63771;52.580;9.734;2023-11-22T05:02:36;3.47;;;2.70;;
75191;SDS011;63771;52.580;9.734;2023-11-22T05:05:01;2.97;;;2.77;;
75191;SDS011;63771;52.580;9.734;2023-11-22T05:07:27;3.00;;;2.80;;
75191;SDS011;63771;52.580;9.734;2023-11-22T05:09:52;2.87;;;2.50;;
75191;SDS011;63771;52.580;9.734;2023-11-22T05:12:17;3.17;;;2.72;;
75191;SDS011;63771;52.580;9.734;2023-11-22T05:14:43;3.40;;;3.20;;
75191;SDS011;63771;52.580;9.734;2023-11-22T05:17:08;2.17;;;2.08;;
75191;SDS011;63771;52.580;9.734;2023-11-22T05:19:34;3.07;;;2.87;;
75191;SDS011;63771;52.580;9.734;2023-11-22T05:21:59;2.80;;;2.57;;
75191;SDS011;63771;52.580;9.734;2023-11-22T05:24:24;3.28;;;2.95;;
75191;SDS011;63771;52.580;9.734;2023-11-22T05:26:49;3.00;;;2.70;;
75191;SDS011;63771;52.580;9.734;2023-11-22T05:29:15;3.40;;;2.93;;
75191;SDS011;63771;52.580;9.734;2023-11-22T05:31:40;2.60;;;2.40;;
75191;SDS011;63771;52.580;9.734;2023-11-22T05:34:05;3.67;;;3.20;;
75191;SDS011;63771;52.580;9.734;2023-11-22T05:36:31;4.18;;;3.15;;
75191;SDS011;63771;52.580;9.734;2023-11-22T05:38:56;2.60;;;2.50;;
75191;SDS011;63771;52.580;9.734;2023-11-22T05:41:25;2.92;;;1.95;;
75191;SDS011;63771;52.580;9.734;2023-11-22T05:43:51;3.20;;;2.85;;
75191;SDS011;63771;52.580;9.734;2023-11-22T05:46:17;4.45;;;4.05;;
75191;SDS011;63771;52.580;9.734;2023-11-22T05:48:46;2.85;;;2.53;;
75191;SDS011;63771;52.580;9.734;2023-11-22T05:51:12;3.72;;;3.42;;
75191;SDS011;63771;52.580;9.734;2023-11-22T05:53:37;3.13;;;2.93;;
75191;SDS011;63771;52.580;9.734;2023-11-22T05:56:02;3.20;;;2.63;;
75191;SDS011;63771;52.580;9.734;2023-11-22T05:58:28;4.03;;;3.60;;
75191;SDS011;63771;52.580;9.734;2023-11-22T06:00:53;3.43;;;3.13;;
75191;SDS011;63771;52.580;9.734;2023-11-22T06:03:19;8.35;;;2.22;;
75191;SDS011;63771;52.580;9.734;2023-11-22T06:05:44;2.57;;;2.40;;
75191;SDS011;63771;52.580;9.734;2023-11-22T06:08:10;3.77;;;2.90;;
75191;SDS011;63771;52.580;9.734;2023-11-22T06:10:35;3.08;;;2.70;;
75191;SDS011;63771;52.580;9.734;2023-11-22T06:13:00;3.85;;;2.92;;
75191;SDS011;63771;52.580;9.734;2023-11-22T06:15:26;3.23;;;2.93;;
75191;SDS011;63771;52.580;9.734;2023-11-22T06:17:51;2.95;;;2.75;;
75191;SDS011;63771;52.580;9.734;2023-11-22T06:20:17;3.30;;;2.70;;
75191;SDS011;63771;52.580;9.734;2023-11-22T06:22:42;3.30;;;3.00;;
75191;SDS011;63771;52.580;9.734;2023-11-22T06:25:08;3.80;;;3.60;;
75191;SDS011;63771;52.580;9.734;2023-11-22T06:27:35;3.55;;;2.75;;
75191;SDS011;63771;52.580;9.734;2023-11-22T06:30:01;4.13;;;3.10;;
75191;SDS011;63771;52.580;9.734;2023-11-22T06:32:26;4.07;;;3.17;;
75191;SDS011;63771;52.580;9.734;2023-11-22T06:34:51;3.25;;;2.95;;
75191;SDS011;63771;52.580;9.734;2023-11-22T06:37:17;4.33;;;3.57;;
75191;SDS011;63771;52.580;9.734;2023-11-22T06:39:42;5.18;;;4.28;;
75191;SDS011;63771;52.580;9.734;2023-11-22T06:42:08;4.53;;;4.13;;
75191;SDS011;63771;52.580;9.734;2023-11-22T06:44:33;4.43;;;4.03;;
75191;SDS011;63771;52.580;9.734;2023-11-22T06:46:59;5.10;;;3.60;;
75191;SDS011;63771;52.580;9.734;2023-11-22T06:49:25;6.03;;;4.18;;
75191;SDS011;63771;52.580;9.734;2023-11-22T06:51:50;4.43;;;4.10;;
75191;SDS011;63771;52.580;9.734;2023-11-22T06:54:18;6.60;;;4.88;;
75191;SDS011;63771;52.580;9.734;2023-11-22T06:56:44;8.27;;;4.15;;
75191;SDS011;63771;52.580;9.734;2023-11-22T06:59:10;5.50;;;4.70;;
75191;SDS011;63771;52.580;9.734;2023-11-22T07:01:36;7.63;;;5.60;;
75191;SDS011;63771;52.580;9.734;2023-11-22T07:04:01;4.97;;;4.20;;
75191;SDS011;63771;52.580;9.734;2023-11-22T07:06:28;4.40;;;4.05;;
75191;SDS011;63771;52.580;9.734;2023-11-22T07:08:54;5.50;;;4.07;;
75191;SDS011;63771;52.580;9.734;2023-11-22T07:11:22;5.13;;;4.50;;
75191;SDS011;63771;52.580;9.734;2023-11-22T07:13:48;6.20;;;4.68;;
75191;SDS011;63771;52.580;9.734;2023-11-22T07:16:13;7.10;;;5.43;;
75191;SDS011;63771;52.580;9.734;2023-11-22T07:18:40;8.98;;;6.15;;
75191;SDS011;63771;52.580;9.734;2023-11-22T07:21:05;13.80;;;5.90;;
75191;SDS011;63771;52.580;9.734;2023-11-22T07:23:30;8.83;;;6.17;;
75191;SDS011;63771;52.580;9.734;2023-11-22T07:25:56;9.90;;;4.73;;
75191;SDS011;63771;52.580;9.734;2023-11-22T07:28:21;6.00;;;4.57;;
75191;SDS011;63771;52.580;9.734;2023-11-22T07:30:46;6.05;;;5.20;;
75191;SDS011;63771;52.580;9.734;2023-11-22T07:33:13;5.38;;;4.57;;
75191;SDS011;63771;52.580;9.734;2023-11-22T07:35:40;7.00;;;4.85;;
75191;SDS011;63771;52.580;9.734;2023-11-22T07:38:05;3.67;;;3.15;;
75191;SDS011;63771;52.580;9.734;2023-11-22T07:40:33;3.92;;;3.35;;
75191;SDS011;63771;52.580;9.734;2023-11-22T07:42:59;4.90;;;4.50;;
75191;SDS011;63771;52.580;9.734;2023-11-22T07:45:24;3.72;;;3.42;;
75191;SDS011;63771;52.580;9.734;2023-11-22T07:47:50;4.03;;;3.50;;
75191;SDS011;63771;52.580;9.734;2023-11-22T07:50:18;4.47;;;2.75;;
75191;SDS011;63771;52.580;9.734;2023-11-22T07:52:44;5.95;;;3.80;;
75191;SDS011;63771;52.580;9.734;2023-11-22T07:55:10;4.72;;;3.95;;
75191;SDS011;63771;52.580;9.734;2023-11-22T07:57:37;6.82;;;3.15;;
75191;SDS011;63771;52.580;9.734;2023-11-22T08:00:03;4.75;;;4.35;;
75191;SDS011;63771;52.580;9.734;2023-11-22T08:02:32;4.35;;;3.38;;
75191;SDS011;63771;52.580;9.734;2023-11-22T08:04:58;5.13;;;4.45;;
75191;SDS011;63771;52.580;9.734;2023-11-22T08:07:26;13.98;;;8.23;;
75191;SDS011;63771;52.580;9.734;2023-11-22T08:09:53;11.02;;;7.32;;
75191;SDS011;63771;52.580;9.734;2023-11-22T08:12:18;9.73;;;6.53;;
75191;SDS011;63771;52.580;9.734;2023-11-22T08:14:44;10.68;;;6.97;;
75191;SDS011;63771;52.580;9.734;2023-11-22T08:17:09;8.13;;;4.97;;
75191;SDS011;63771;52.580;9.734;2023-11-22T08:19:38;4.63;;;4.22;;
75191;SDS011;63771;52.580;9.734;2023-11-22T08:22:05;5.05;;;4.05;;
75191;SDS011;63771;52.580;9.734;2023-11-22T08:24:30;5.50;;;3.60;;
75191;SDS011;63771;52.580;9.734;2023-11-22T08:26:55;4.17;;;3.77;;
75191;SDS011;63771;52.580;9.734;2023-11-22T08:29:21;5.93;;;3.43;;
75191;SDS011;63771;52.580;9.734;2023-11-22T08:31:47;3.85;;;3.40;;
75191;SDS011;63771;52.580;9.734;2023-11-22T08:34:15;4.03;;;3.72;;
75191;SDS011;63771;52.580;9.734;2023-11-22T08:36:41;5.50;;;3.85;;
75191;SDS011;63771;52.580;9.734;2023-11-22T08:39:07;5.50;;;4.68;;
75191;SDS011;63771;52.580;9.734;2023-11-22T08:41:33;5.80;;;4.97;;
75191;SDS011;63771;52.580;9.734;2023-11-22T08:43:59;5.60;;;5.03;;
75191;SDS011;63771;52.580;9.734;2023-11-22T08:46:25;5.78;;;4.57;;
75191;SDS011;63771;52.580;9.734;2023-11-22T08:48:51;5.10;;;4.38;;
75191;SDS011;63771;52.580;9.734;2023-11-22T08:51:16;4.70;;;4.30;;
75191;SDS011;63771;52.580;9.734;2023-11-22T08:53:42;5.13;;;4.60;;
75191;SDS011;63771;52.580;9.734;2023-11-22T08:56:09;6.78;;;5.03;;
75191;SDS011;63771;52.580;9.734;2023-11-22T08:58:34;6.83;;;6.20;;
75191;SDS011;63771;52.580;9.734;2023-11-22T09:00:59;7.67;;;5.53;;
75191;SDS011;63771;52.580;9.734;2023-11-22T09:03:25;5.40;;;4.57;;
75191;SDS011;63771;52.580;9.734;2023-11-22T09:05:51;4.70;;;3.92;;
75191;SDS011;63771;52.580;9.734;2023-11-22T09:08:18;7.00;;;4.43;;
75191;SDS011;63771;52.580;9.734;2023-11-22T09:10:45;5.50;;;4.20;;
75191;SDS011;63771;52.580;9.734;2023-11-22T09:13:11;3.90;;;3.60;;
75191;SDS011;63771;52.580;9.734;2023-11-22T09:15:40;5.75;;;3.85;;
75191;SDS011;63771;52.580;9.734;2023-11-22T09:18:06;5.32;;;4.07;;
75191;SDS011;63771;52.580;9.734;2023-11-22T09:20:33;7.13;;;5.15;;
75191;SDS011;63771;52.580;9.734;2023-11-22T09:22:58;5.80;;;3.90;;
75191;SDS011;63771;52.580;9.734;2023-11-22T09:25:24;6.95;;;4.38;;
75191;SDS011;63771;52.580;9.734;2023-11-22T09:27:51;9.43;;;4.88;;
75191;SDS011;63771;52.580;9.734;2023-11-22T09:30:20;4.82;;;3.83;;
75191;SDS011;63771;52.580;9.734;2023-11-22T09:33:11;6.43;;;4.00;;
75191;SDS011;63771;52.580;9.734;2023-11-22T09:35:40;5.05;;;3.97;;
75191;SDS011;63771;52.580;9.734;2023-11-22T09:38:08;4.10;;;3.78;;
75191;SDS011;63771;52.580;9.734;2023-11-22T09:40:43;5.03;;;3.95;;
75191;SDS011;63771;52.580;9.734;2023-11-22T09:43:10;3.78;;;3.45;;
75191;SDS011;63771;52.580;9.734;2023-11-22T09:45:36;5.75;;;3.40;;
75191;SDS011;63771;52.580;9.734;2023-11-22T09:48:03;5.03;;;3.45;;
75191;SDS011;63771;52.580;9.734;2023-11-22T09:50:39;3.85;;;3.55;;
75191;SDS011;63771;52.580;9.734;2023-11-22T09:53:12;2.63;;;2.42;;
75191;SDS011;63771;52.580;9.734;2023-11-22T09:55:44;3.92;;;2.90;;
75191;SDS011;63771;52.580;9.734;2023-11-22T09:58:11;5.28;;;3.65;;
75191;SDS011;63771;52.580;9.734;2023-11-22T10:00:37;3.05;;;2.85;;
75191;SDS011;63771;52.580;9.734;2023-11-22T10:03:06;4.22;;;3.22;;
75191;SDS011;63771;52.580;9.734;2023-11-22T10:05:31;3.23;;;2.93;;
75191;SDS011;63771;52.580;9.734;2023-11-22T10:07:56;3.58;;;3.28;;
75191;SDS011;63771;52.580;9.734;2023-11-22T10:10:22;3.15;;;2.85;;
75191;SDS011;63771;52.580;9.734;2023-11-22T10:12:48;3.45;;;3.20;;
75191;SDS011;63771;52.580;9.734;2023-11-22T10:15:14;3.05;;;2.85;;
75191;SDS011;63771;52.580;9.734;2023-11-22T10:17:41;3.75;;;3.42;;
75191;SDS011;63771;52.580;9.734;2023-11-22T10:20:18;3.95;;;2.92;;
75191;SDS011;63771;52.580;9.734;2023-11-22T10:22:44;6.07;;;4.27;;
75191;SDS011;63771;52.580;9.734;2023-11-22T10:25:10;4.90;;;3.17;;
75191;SDS011;63771;52.580;9.734;2023-11-22T10:27:37;6.73;;;4.60;;
75191;SDS011;63771;52.580;9.734;2023-11-22T10:30:02;7.25;;;4.95;;
75191;SDS011;63771;52.580;9.734;2023-11-22T10:32:28;6.65;;;3.45;;
75191;SDS011;63771;52.580;9.734;2023-11-22T10:34:54;5.28;;;3.60;;
75191;SDS011;63771;52.580;9.734;2023-11-22T10:37:20;4.40;;;3.45;;
75191;SDS011;63771;52.580;9.734;2023-11-22T10:39:50;2.80;;;2.58;;
75191;SDS011;63771;52.580;9.734;2023-11-22T10:42:16;4.55;;;3.47;;
75191;SDS011;63771;52.580;9.734;2023-11-22T10:44:42;3.47;;;3.15;;
75191;SDS011;63771;52.580;9.734;2023-11-22T10:47:08;5.50;;;4.18;;
75191;SDS011;63771;52.580;9.734;2023-11-22T10:49:34;4.00;;;3.65;;
75191;SDS011;63771;52.580;9.734;2023-11-22T10:52:00;6.82;;;3.42;;
75191;SDS011;63771;52.580;9.734;2023-11-22T10:54:28;4.13;;;3.55;;
75191;SDS011;63771;52.580;9.734;2023-11-22T10:56:55;4.10;;;3.00;;
75191;SDS011;63771;52.580;9.734;2023-11-22T10:59:26;4.97;;;3.45;;
75191;SDS011;63771;52.580;9.734;2023-11-22T11:01:56;3.35;;;3.05;;
75191;SDS011;63771;52.580;9.734;2023-11-22T11:04:24;3.35;;;3.03;;
75191;SDS011;63771;52.580;9.734;2023-11-22T11:06:54;3.70;;;3.28;;
75191;SDS011;63771;52.580;9.734;2023-11-22T11:09:23;3.70;;;3.40;;
75191;SDS011;63771;52.580;9.734;2023-11-22T11:11:54;3.78;;;3.47;;
75191;SDS011;63771;52.580;9.734;2023-11-22T11:14:22;4.25;;;3.55;;
75191;SDS011;63771;52.580;9.734;2023-11-22T11:16:48;3.70;;;3.40;;
75191;SDS011;63771;52.580;9.734;2023-11-22T11:19:19;9.95;;;4.03;;
75191;SDS011;63771;52.580;9.734;2023-11-22T11:21:47;3.00;;;2.75;;
75191;SDS011;63771;52.580;9.734;2023-11-22T11:24:13;3.58;;;2.90;;
75191;SDS011;63771;52.580;9.734;2023-11-22T11:26:39;4.10;;;3.22;;
75191;SDS011;63771;52.580;9.734;2023-11-22T11:29:04;4.82;;;4.00;;
75191;SDS011;63771;52.580;9.734;2023-11-22T11:31:31;4.22;;;2.80;;
75191;SDS011;63771;52.580;9.734;2023-11-22T11:34:01;3.40;;;2.97;;
75191;SDS011;63771;52.580;9.734;2023-11-22T11:36:31;4.25;;;3.10;;
75191;SDS011;63771;52.580;9.734;2023-11-22T11:38:58;6.07;;;3.38;;
75191;SDS011;63771;52.580;9.734;2023-11-22T11:41:26;3.50;;;3.20;;
75191;SDS011;63771;52.580;9.734;2023-11-22T11:43:53;4.18;;;3.28;;
75191;SDS011;63771;52.580;9.734;2023-11-22T11:46:20;3.60;;;3.30;;
75191;SDS011;63771;52.580;9.734;2023-11-22T11:48:48;3.75;;;3.22;;
75191;SDS011;63771;52.580;9.734;2023-11-22T11:51:15;5.38;;;3.60;;
75191;SDS011;63771;52.580;9.734;2023-11-22T11:53:42;3.83;;;3.17;;
75191;SDS011;63771;52.580;9.734;2023-11-22T11:56:09;3.88;;;3.42;;
75191;SDS011;63771;52.580;9.734;2023-11-22T11:58:34;3.75;;;3.38;;
75191;SDS011;63771;52.580;9.734;2023-11-22T12:01:00;3.03;;;2.83;;
75191;SDS011;63771;52.580;9.734;2023-11-22T12:03:25;4.40;;;3.55;;
75191;SDS011;63771;52.580;9.734;2023-11-22T12:05:50;4.43;;;2.97;;
75191;SDS011;63771;52.580;9.734;2023-11-22T12:08:16;6.60;;;3.37;;
75191;SDS011;63771;52.580;9.734;2023-11-22T12:10:42;3.72;;;2.78;;
75191;SDS011;63771;52.580;9.734;2023-11-22T12:13:08;3.55;;;3.25;;
75191;SDS011;63771;52.580;9.734;2023-11-22T12:15:34;3.92;;;3.03;;
75191;SDS011;63771;52.580;9.734;2023-11-22T12:18:00;3.70;;;3.35;;
75191;SDS011;63771;52.580;9.734;2023-11-22T12:20:26;3.30;;;3.10;;
75191;SDS011;63771;52.580;9.734;2023-11-22T12:22:56;5.05;;;3.63;;
75191;SDS011;63771;52.580;9.734;2023-11-22T12:25:28;8.82;;;4.38;;
75191;SDS011;63771;52.580;9.734;2023-11-22T12:27:54;8.00;;;4.88;;
75191;SDS011;63771;52.580;9.734;2023-11-22T12:30:30;4.97;;;4.43;;
75191;SDS011;63771;52.580;9.734;2023-11-22T12:33:00;5.38;;;3.53;;
75191;SDS011;63771;52.580;9.734;2023-11-22T12:35:29;4.47;;;4.07;;
75191;SDS011;63771;52.580;9.734;2023-11-22T12:37:55;3.83;;;3.20;;
75191;SDS011;63771;52.580;9.734;2023-11-22T12:40:21;5.07;;;4.65;;
75191;SDS011;63771;52.580;9.734;2023-11-22T12:42:47;4.15;;;3.85;;
75191;SDS011;63771;52.580;9.734;2023-11-22T12:45:20;3.80;;;2.67;;
75191;SDS011;63771;52.580;9.734;2023-11-22T12:47:48;3.80;;;3.42;;
75191;SDS011;63771;52.580;9.734;2023-11-22T12:53:08;4.13;;;3.47;;
75191;SDS011;63771;52.580;9.734;2023-11-22T12:55:46;4.47;;;3.50;;
75191;SDS011;63771;52.580;9.734;2023-11-22T12:58:14;3.28;;;2.83;;
75191;SDS011;63771;52.580;9.734;2023-11-22T13:00:44;4.75;;;3.13;;
75191;SDS011;63771;52.580;9.734;2023-11-22T13:03:10;4.43;;;3.90;;
75191;SDS011;63771;52.580;9.734;2023-11-22T13:05:40;4.05;;;3.33;;
75191;SDS011;63771;52.580;9.734;2023-11-22T13:08:10;4.15;;;3.35;;
75191;SDS011;63771;52.580;9.734;2023-11-22T13:10:38;3.90;;;3.28;;
75191;SDS011;63771;52.580;9.734;2023-11-22T13:13:04;3.83;;;3.53;;
75191;SDS011;63771;52.580;9.734;2023-11-22T13:15:29;3.73;;;3.37;;
75191;SDS011;63771;52.580;9.734;2023-11-22T13:17:55;5.33;;;3.23;;
75191;SDS011;63771;52.580;9.734;2023-11-22T13:20:24;4.38;;;3.35;;
75191;SDS011;63771;52.580;9.734;2023-11-22T13:22:51;4.40;;;4.00;;
75191;SDS011;63771;52.580;9.734;2023-11-22T13:25:17;6.70;;;3.92;;
75191;SDS011;63771;52.580;9.734;2023-11-22T13:27:44;4.72;;;3.83;;
75191;SDS011;63771;52.580;9.734;2023-11-22T13:30:11;4.90;;;3.65;;
75191;SDS011;63771;52.580;9.734;2023-11-22T13:32:37;9.52;;;4.90;;
75191;SDS011;63771;52.580;9.734;2023-11-22T13:35:04;5.75;;;4.63;;
75191;SDS011;63771;52.580;9.734;2023-11-22T13:37:36;8.68;;;3.92;;
75191;SDS011;63771;52.580;9.734;2023-11-22T13:40:02;10.53;;;4.03;;
75191;SDS011;63771;52.580;9.734;2023-11-22T13:42:28;7.93;;;4.50;;
75191;SDS011;63771;52.580;9.734;2023-11-22T13:44:53;6.03;;;3.83;;
75191;SDS011;63771;52.580;9.734;2023-11-22T13:47:18;11.90;;;4.27;;
75191;SDS011;63771;52.580;9.734;2023-11-22T13:49:44;7.60;;;4.27;;
75191;SDS011;63771;52.580;9.734;2023-11-22T13:52:09;8.10;;;3.70;;
75191;SDS011;63771;52.580;9.734;2023-11-22T13:54:34;10.43;;;4.73;;
75191;SDS011;63771;52.580;9.734;2023-11-22T13:57:04;7.65;;;4.55;;
75191;SDS011;63771;52.580;9.734;2023-11-22T13:59:29;10.50;;;5.72;;
75191;SDS011;63771;52.580;9.734;2023-11-22T14:01:55;9.03;;;5.33;;
75191;SDS011;63771;52.580;9.734;2023-11-22T14:04:20;8.10;;;4.27;;
75191;SDS011;63771;52.580;9.734;2023-11-22T14:06:45;6.67;;;4.20;;
75191;SDS011;63771;52.580;9.734;2023-11-22T14:09:11;5.53;;;3.60;;
75191;SDS011;63771;52.580;9.734;2023-11-22T14:11:38;6.60;;;3.80;;
75191;SDS011;63771;52.580;9.734;2023-11-22T14:14:03;7.60;;;4.00;;
75191;SDS011;63771;52.580;9.734;2023-11-22T14:16:29;4.70;;;4.30;;
75191;SDS011;63771;52.580;9.734;2023-11-22T14:18:56;7.57;;;4.93;;
75191;SDS011;63771;52.580;9.734;2023-11-22T14:21:22;10.40;;;4.85;;
75191;SDS011;63771;52.580;9.734;2023-11-22T14:23:49;7.63;;;4.35;;
75191;SDS011;63771;52.580;9.734;2023-11-22T14:26:14;5.10;;;4.33;;
75191;SDS011;63771;52.580;9.734;2023-11-22T14:28:39;8.10;;;4.40;;
75191;SDS011;63771;52.580;9.734;2023-11-22T14:31:06;6.53;;;4.65;;
75191;SDS011;63771;52.580;9.734;2023-11-22T14:33:32;4.85;;;4.40;;
75191;SDS011;63771;52.580;9.734;2023-11-22T14:35:57;5.80;;;4.28;;
75191;SDS011;63771;52.580;9.734;2023-11-22T14:38:23;6.07;;;4.15;;
75191;SDS011;63771;52.580;9.734;2023-11-22T14:40:49;8.48;;;4.90;;
75191;SDS011;63771;52.580;9.734;2023-11-22T14:43:15;4.10;;;3.67;;
75191;SDS011;63771;52.580;9.734;2023-11-22T14:45:40;6.28;;;4.60;;
75191;SDS011;63771;52.580;9.734;2023-11-22T14:48:06;5.70;;;3.92;;